»·PEaware :: ACA417 CYUL-CYYZ

ACA417 :: CYUL-CYYZ

FLIGHT INFORMATION

Flight Status: Arrived
Operator:
Air Canada
More flights by this operator :: More flights under this callsign
Pilot: Anonymous 14085 (14085)
Aircraft: AIRBUS A319
(A319)
More flights by this aircraft type
Origin: CYUL Montréal-Trudeau
Canada
Destination: CYYZ Toronto/Pearson Intl
Canada
More flights between these airports :: More routes between these airports
Route: BOBKI MELTI TORNI RAGID5
File this flight plan on PilotEdge
Remarks: RMK / SIMBRIEF
Altitude:
(Current/Filed)
28,000ft
Speed:
(Current/Filed)
447kts
Departed: 23-Sep-20 05:03 PM
Arrived: 23-Sep-20 05:56 PM
Distance/Time
Traveled:
273nm/0:53
Distance/Time
To Go:
Arrived

Flight Plot

Page will automatically refresh every two minutes.

Flight plan parsing failed; only flown route is shown


Map Options




Map Legend


Flown Route
Filed Route
Departure Airport
Arrival Airport
Navaid (VOR, NDB)
Fix

Horizontal Profiles

Position Reports

Time Latitude Longitude Heading Altitude Ground
Speed
23-Sep-20 16:38 45.459294 -73.748963 178 100ft 0kts
23-Sep-20 16:39 45.459294 -73.748963 178 100ft 0kts
23-Sep-20 16:40 45.459294 -73.748963 178 100ft 0kts
23-Sep-20 16:41 45.459294 -73.748963 178 100ft 0kts
23-Sep-20 16:42 45.459294 -73.748963 178 100ft 0kts
23-Sep-20 16:43 45.459294 -73.748963 178 100ft 0kts
23-Sep-20 16:44 45.459294 -73.748963 178 100ft 0kts
23-Sep-20 16:44 45.459294 -73.748963 178 100ft 0kts
23-Sep-20 16:46 45.459657 -73.748979 177 100ft 2kts
23-Sep-20 16:47 45.459886 -73.748832 267 100ft 0kts
23-Sep-20 16:47 45.459886 -73.748832 267 100ft 0kts
23-Sep-20 16:49 45.459886 -73.748833 267 100ft 0kts
23-Sep-20 16:50 45.459886 -73.748833 267 100ft 0kts
23-Sep-20 16:50 45.459886 -73.748833 267 100ft 0kts
23-Sep-20 16:51 45.459925 -73.749728 279 100ft 8kts
23-Sep-20 16:52 45.460923 -73.753916 317 100ft 14kts
23-Sep-20 16:53 45.462831 -73.757243 1 100ft 12kts
23-Sep-20 16:54 45.466383 -73.754154 42 100ft 17kts
23-Sep-20 16:55 45.470326 -73.749022 42 100ft 20kts
23-Sep-20 16:56 45.474660 -73.743312 41 100ft 21kts
23-Sep-20 16:57 45.479084 -73.737492 42 104ft 21kts
23-Sep-20 16:59 45.481476 -73.732792 70 107ft 5kts
23-Sep-20 16:59 45.481841 -73.732912 278 107ft 0kts
23-Sep-20 17:00 45.481841 -73.732912 278 107ft 0kts
23-Sep-20 17:01 45.482617 -73.734693 305 107ft 11kts
23-Sep-20 17:02 45.470449 -73.752677 223 185ft 167kts
23-Sep-20 17:03 45.447391 -73.805409 263 3180ft 166kts
23-Sep-20 17:04 45.444285 -73.875087 268 5184ft 222kts
23-Sep-20 17:05 45.440625 -73.955186 268 7403ft 266kts
23-Sep-20 17:06 45.435427 -74.062155 270 10720ft 283kts
23-Sep-20 17:07 45.429287 -74.187819 269 12636ft 343kts
23-Sep-20 17:08 45.422242 -74.324790 269 15711ft 354kts
23-Sep-20 17:09 45.410583 -74.466427 261 18370ft 369kts
23-Sep-20 17:10 45.386664 -74.610152 261 20724ft 380kts
23-Sep-20 17:11 45.361727 -74.758072 260 22821ft 390kts
23-Sep-20 17:12 45.335993 -74.909435 260 24695ft 399kts
23-Sep-20 17:13 45.309444 -75.064095 260 26091ft 414kts
23-Sep-20 17:14 45.280958 -75.228336 260 26778ft 441kts
23-Sep-20 17:15 45.251277 -75.397101 260 27900ft 437kts
23-Sep-20 17:16 45.222266 -75.560773 260 27907ft 429kts
23-Sep-20 17:17 45.192872 -75.725235 259 27908ft 430kts
23-Sep-20 17:18 45.163310 -75.889102 259 27907ft 430kts
23-Sep-20 17:19 45.143547 -75.997607 259 27907ft 430kts
23-Sep-20 17:20 45.113290 -76.162218 259 27903ft 405kts
23-Sep-20 17:21 45.076276 -76.292794 248 27902ft 320kts
23-Sep-20 17:22 45.034376 -76.399376 248 27909ft 307kts
23-Sep-20 17:23 44.992717 -76.504755 248 27920ft 308kts
23-Sep-20 17:24 44.950710 -76.610487 248 27931ft 308kts
23-Sep-20 17:25 44.908751 -76.715824 247 27935ft 311kts
23-Sep-20 17:26 44.863180 -76.830298 246 27934ft 349kts
23-Sep-20 17:27 44.815244 -76.949121 247 27934ft 347kts
23-Sep-20 17:28 44.767835 -77.066427 246 27935ft 346kts
23-Sep-20 17:29 44.720135 -77.183972 247 27938ft 346kts
23-Sep-20 17:30 44.672473 -77.300986 246 27943ft 345kts
23-Sep-20 17:31 44.624447 -77.418395 246 27944ft 346kts
23-Sep-20 17:32 44.576145 -77.536176 246 27634ft 369kts
23-Sep-20 17:33 44.519834 -77.673137 244 26651ft 431kts
23-Sep-20 17:34 44.460058 -77.817110 244 25303ft 424kts
23-Sep-20 17:35 44.401959 -77.956418 244 23081ft 407kts
23-Sep-20 17:36 44.345843 -78.090358 244 20878ft 392kts
23-Sep-20 17:37 44.291571 -78.219333 244 18732ft 379kts
23-Sep-20 17:38 44.238757 -78.344287 244 16640ft 368kts
23-Sep-20 17:39 44.187415 -78.465222 244 14621ft 358kts
23-Sep-20 17:40 44.137453 -78.582375 243 12660ft 346kts
23-Sep-20 17:41 44.089438 -78.694574 242 10759ft 329kts
23-Sep-20 17:42 44.046595 -78.793269 240 10167ft 286kts
23-Sep-20 17:43 43.993955 -78.877381 231 9317ft 287kts
23-Sep-20 17:44 43.940873 -78.956765 231 8029ft 274kts
23-Sep-20 17:45 43.890113 -79.032502 230 6969ft 255kts
23-Sep-20 17:46 43.870698 -79.115853 275 6961ft 235kts
23-Sep-20 17:47 43.873194 -79.206864 274 5946ft 234kts
23-Sep-20 17:48 43.874837 -79.296639 264 4728ft 232kts
23-Sep-20 17:49 43.835493 -79.367435 230 3780ft 235kts
23-Sep-20 17:50 43.795534 -79.428285 229 3708ft 191kts
23-Sep-20 17:51 43.760880 -79.478647 229 2844ft 159kts
23-Sep-20 17:52 43.733018 -79.519062 229 2092ft 142kts
23-Sep-20 17:53 43.705830 -79.558422 229 1366ft 140kts
23-Sep-20 17:54 43.679082 -79.597161 230 585ft 138kts
23-Sep-20 17:55 43.669038 -79.615388 316 536ft 11kts
23-Sep-20 17:56 43.670540 -79.616840 30 545ft 8kts
23-Sep-20 17:57 43.672660 -79.614102 44 540ft 0kts
23-Sep-20 17:58 43.673668 -79.613726 309 542ft 10kts
23-Sep-20 17:59 43.678073 -79.619546 318 550ft 24kts
23-Sep-20 18:00 43.683902 -79.626353 315 550ft 21kts
23-Sep-20 18:01 43.686092 -79.625912 336 550ft 3kts
23-Sep-20 18:02 43.686550 -79.626183 337 550ft 0kts
23-Sep-20 18:03 43.686550 -79.626183 337 550ft 0kts
23-Sep-20 18:05 43.686550 -79.626183 337 550ft 0kts
23-Sep-20 18:06 43.686550 -79.626183 337 550ft 0kts
23-Sep-20 18:07 43.686550 -79.626183 337 550ft 0kts
23-Sep-20 18:08 43.686550 -79.626183 337 550ft 0kts
23-Sep-20 18:09 43.686550 -79.626183 337 550ft 0kts

Navigation Log

Ident Type
Flight plan parsing failed, navigation log unavailable